Terminal Aerodrome Forecast
Issued by NWS

Home | Current Version | Previous Version | Graphics & Text | Print | Product List | Glossary On
Versions: 1 2 3 4 5 6 7 8 9 10 11 12 13 14 15 16
000
FTUS41 KCLE 190538
TAFFDY
TAF
KFDY 190538Z 1906/2006 25004KT P6SM FEW045 SCT200
     FM191100 24004KT P6SM VCTS BKN050CB BKN100
     FM191500 26008KT P6SM BKN040 BKN100
     FM200000 VRB03KT P6SM FEW200=

USA.gov is the U.S. government's official web portal to all federal, state and local government web resources and services.